Time;durP1;ratioP1;P1;durP2;ratioP2;P2;SDS_P1;SDS_P2;PMS_P1;PMS_P2;Temp;Humidity;BMP_temperature;BMP_pressure;BME280_temperature;BME280_humidity;BME280_pressure;Samples;Min_cycle;Max_cycle;Signal;HPM_P1;HPM_P2
2022/03/15 00:02:01;;;;;;;10.40;5.73;;;;;;;11.79;46.39;98571.19;5078949;28;20179;-70
2022/03/15 00:04:26;;;;;;;10.50;4.97;;;;;;;11.81;46.65;98556.16;5078449;28;20467;-70
2022/03/15 00:06:52;;;;;;;8.47;5.20;;;;;;;11.83;46.38;98541.09;5077760;28;20193;-69
2022/03/15 00:09:17;;;;;;;7.20;4.60;;;;;;;11.82;46.05;98542.06;5077303;28;20273;-70
2022/03/15 00:11:43;;;;;;;12.93;4.50;;;;;;;11.66;46.46;98545.09;5067400;28;20171;-69
2022/03/15 00:14:09;;;;;;;9.47;4.80;;;;;;;11.59;46.84;98543.13;5073000;28;20283;-69
2022/03/15 00:16:34;;;;;;;8.43;4.73;;;;;;;11.62;46.60;98548.09;5070399;28;20178;-69
2022/03/15 00:19:01;;;;;;;8.93;4.90;;;;;;;11.67;46.86;98553.81;5077935;28;20456;-69
2022/03/15 00:21:28;;;;;;;12.87;4.00;;;;;;;11.75;46.69;98554.03;5063338;28;20261;-70
2022/03/15 00:23:53;;;;;;;9.30;4.50;;;;;;;11.79;46.56;98550.19;5056958;28;20446;-69
2022/03/15 00:26:19;;;;;;;8.10;4.20;;;;;;;11.77;46.24;98541.59;5066499;28;20496;-69
2022/03/15 00:28:45;;;;;;;6.60;4.53;;;;;;;11.55;46.87;98547.78;5071521;28;20174;-68
2022/03/15 00:31:10;;;;;;;6.53;4.40;;;;;;;11.22;47.66;98555.63;5073800;28;20207;-70
2022/03/15 00:33:39;;;;;;;10.40;4.30;;;;;;;11.34;47.93;98534.63;5074101;28;20226;-69
2022/03/15 00:36:04;;;;;;;7.70;4.20;;;;;;;11.49;47.66;98549.13;5073457;28;20178;-69
2022/03/15 00:38:30;;;;;;;5.00;4.10;;;;;;;11.56;47.55;98540.75;5073874;28;20467;-69
2022/03/15 00:40:55;;;;;;;9.37;4.30;;;;;;;11.61;47.35;98541.19;5073929;28;20174;-69
2022/03/15 00:43:21;;;;;;;7.30;4.10;;;;;;;11.66;47.13;98537.22;5071879;28;20202;-68
2022/03/15 00:45:46;;;;;;;8.93;3.60;;;;;;;11.72;47.12;98537.69;5072986;28;20280;-69
2022/03/15 00:48:12;;;;;;;7.37;3.73;;;;;;;11.69;46.98;98538.78;5073775;28;20190;-69
2022/03/15 00:50:41;;;;;;;10.03;4.50;;;;;;;11.64;46.76;98535.69;5073577;28;20182;-69
2022/03/15 00:53:07;;;;;;;13.93;4.07;;;;;;;11.46;46.70;98527.53;5065583;28;20813;-69
2022/03/15 00:55:33;;;;;;;9.23;4.20;;;;;;;11.26;48.10;98529.16;5057195;28;20978;-67
2022/03/15 00:57:58;;;;;;;9.80;4.00;;;;;;;11.37;48.19;98524.72;5073396;28;20413;-68
2022/03/15 01:00:25;;;;;;;6.90;3.50;;;;;;;11.46;47.86;98522.28;5073454;28;20692;-68
2022/03/15 01:02:50;;;;;;;7.43;3.83;;;;;;;11.56;47.72;98527.63;5066023;28;20278;-68
2022/03/15 01:05:16;;;;;;;9.53;4.03;;;;;;;11.62;47.32;98524.47;5068037;28;21064;-68
2022/03/15 01:07:42;;;;;;;7.77;3.97;;;;;;;11.52;47.37;98520.00;5073337;28;20209;-69
2022/03/15 01:10:08;;;;;;;7.93;4.13;;;;;;;11.43;48.00;98515.50;5073063;28;20417;-68
2022/03/15 01:12:33;;;;;;;17.03;4.90;;;;;;;11.49;47.67;98517.59;5065491;28;20629;-69
2022/03/15 01:14:59;;;;;;;6.90;4.33;;;;;;;11.44;47.68;98518.94;5064578;28;20545;-69
2022/03/15 01:17:24;;;;;;;6.33;3.97;;;;;;;11.44;47.82;98509.28;5071954;28;20292;-68
2022/03/15 01:19:50;;;;;;;6.60;3.93;;;;;;;11.39;48.00;98516.69;5071376;28;20199;-68
2022/03/15 01:22:15;;;;;;;6.77;4.17;;;;;;;11.40;47.76;98510.50;5072404;28;20208;-67
2022/03/15 01:24:41;;;;;;;6.83;4.10;;;;;;;11.49;47.68;98501.03;5063763;28;20602;-68
2022/03/15 01:27:06;;;;;;;9.10;4.33;;;;;;;11.36;47.71;98509.06;5072898;28;20175;-67
2022/03/15 01:29:32;;;;;;;7.60;3.63;;;;;;;11.21;48.49;98498.84;5077311;28;20175;-68
2022/03/15 01:31:59;;;;;;;7.70;3.80;;;;;;;11.18;48.40;98498.28;5077794;28;20729;-68
2022/03/15 01:34:25;;;;;;;5.60;3.90;;;;;;;11.26;48.59;98503.75;5072399;28;20205;-68
2022/03/15 01:36:50;;;;;;;8.63;3.70;;;;;;;11.31;47.98;98500.75;5072032;28;20919;-69
2022/03/15 01:39:17;;;;;;;8.20;4.47;;;;;;;11.31;48.43;98493.69;5072073;28;20449;-68
2022/03/15 01:41:44;;;;;;;6.20;4.30;;;;;;;11.34;48.26;98482.13;5071801;28;20179;-68
2022/03/15 01:44:29;;;;;;;9.77;4.57;;;;;;;11.14;48.82;98468.84;5072819;28;20432;-69
2022/03/15 01:46:54;;;;;;;7.13;4.00;;;;;;;11.27;48.51;98470.47;5070660;28;20429;-68
2022/03/15 01:49:20;;;;;;;5.90;3.87;;;;;;;11.30;48.16;98465.78;5070818;28;20523;-68
2022/03/15 01:51:46;;;;;;;13.40;4.20;;;;;;;11.35;48.13;98476.75;5065009;28;20182;-68
2022/03/15 01:54:12;;;;;;;10.10;4.67;;;;;;;11.33;48.37;98469.97;5061916;28;20252;-68
2022/03/15 01:56:42;;;;;;;8.93;3.87;;;;;;;11.29;48.48;98466.75;5071173;28;20774;-68
2022/03/15 01:59:11;;;;;;;5.63;3.50;;;;;;;11.28;48.08;98467.69;5072295;28;20565;-67
2022/03/15 02:01:38;;;;;;;7.00;4.10;;;;;;;11.29;48.48;98468.53;5072499;28;20420;-69
2022/03/15 02:04:04;;;;;;;5.23;3.70;;;;;;;11.34;48.20;98466.38;5071841;28;20464;-68
2022/03/15 02:06:30;;;;;;;8.00;3.97;;;;;;;11.32;48.14;98473.56;5071465;28;20408;-68
2022/03/15 02:08:55;;;;;;;5.97;3.83;;;;;;;11.30;48.14;98465.78;5072049;28;21179;-68
2022/03/15 02:11:21;;;;;;;5.43;3.57;;;;;;;11.32;48.25;98470.94;5070721;28;20559;-68
2022/03/15 02:13:46;;;;;;;7.27;4.43;;;;;;;11.29;48.19;98476.44;5068807;28;20252;-67
2022/03/15 02:16:13;;;;;;;7.60;4.33;;;;;;;11.31;48.61;98472.69;5054706;28;20672;-68
2022/03/15 02:18:39;;;;;;;8.13;4.00;;;;;;;11.33;48.32;98468.16;5072077;28;20226;-68
2022/03/15 02:21:04;;;;;;;13.10;3.97;;;;;;;11.34;48.56;98475.09;5070552;28;20508;-68
2022/03/15 02:23:29;;;;;;;8.40;4.07;;;;;;;11.34;48.56;98461.13;5064541;28;20203;-68
2022/03/15 02:25:55;;;;;;;7.70;4.60;;;;;;;11.36;48.48;98467.06;5061450;28;20249;-68
2022/03/15 02:28:20;;;;;;;5.80;4.00;;;;;;;11.34;48.67;98466.38;5071562;28;20269;-68
2022/03/15 02:30:46;;;;;;;7.80;4.40;;;;;;;11.36;48.10;98464.44;5071105;28;20247;-67
2022/03/15 02:33:11;;;;;;;6.10;4.03;;;;;;;11.26;48.33;98455.66;5071101;28;20309;-67
2022/03/15 02:35:37;;;;;;;13.50;3.90;;;;;;;11.14;48.74;98460.16;5071454;28;20224;-68
2022/03/15 02:38:02;;;;;;;8.20;4.70;;;;;;;11.04;48.67;98465.31;5070051;28;20604;-68
2022/03/15 02:40:28;;;;;;;10.13;4.83;;;;;;;11.01;49.44;98461.16;5071097;28;20692;-68
2022/03/15 02:42:53;;;;;;;6.60;4.10;;;;;;;11.11;49.37;98453.34;5071425;28;20205;-68
2022/03/15 02:45:19;;;;;;;7.13;4.10;;;;;;;11.12;49.03;98448.94;5071068;28;20182;-68
2022/03/15 02:47:48;;;;;;;7.23;4.20;;;;;;;11.20;49.16;98446.50;5071462;28;20272;-68
2022/03/15 02:50:14;;;;;;;10.40;4.27;;;;;;;11.28;49.06;98443.25;5062357;28;20266;-69
2022/03/15 02:52:39;;;;;;;7.33;4.30;;;;;;;11.26;48.88;98447.78;5070167;28;20528;-68
2022/03/15 02:55:06;;;;;;;8.40;4.17;;;;;;;11.23;48.13;98446.28;5053728;28;20179;-69
2022/03/15 02:57:31;;;;;;;6.80;4.17;;;;;;;11.22;49.03;98441.97;5070885;28;20674;-68
2022/03/15 02:59:57;;;;;;;13.40;4.50;;;;;;;11.20;48.42;98439.50;5071431;28;20543;-68
2022/03/15 03:02:22;;;;;;;8.30;4.30;;;;;;;11.20;48.93;98449.97;5060424;28;20186;-68
2022/03/15 03:04:48;;;;;;;7.13;4.27;;;;;;;11.19;48.78;98450.94;5065463;28;20645;-68
2022/03/15 03:07:14;;;;;;;11.57;4.93;;;;;;;11.08;49.51;98440.50;5066480;28;20184;-68
2022/03/15 03:09:39;;;;;;;6.00;4.30;;;;;;;11.16;49.16;98442.47;5069748;28;20202;-69
2022/03/15 03:12:05;;;;;;;9.67;4.90;;;;;;;11.17;49.14;98447.59;5060876;28;20945;-68
2022/03/15 03:14:34;;;;;;;6.90;3.90;;;;;;;11.17;49.36;98450.22;5064595;28;20206;-68
2022/03/15 03:16:59;;;;;;;9.93;4.40;;;;;;;11.17;49.14;98442.34;5071178;28;20629;-69
2022/03/15 03:19:25;;;;;;;8.40;4.70;;;;;;;11.15;49.04;98446.91;5070752;28;20445;-69
2022/03/15 03:21:50;;;;;;;4.50;3.80;;;;;;;11.13;49.24;98443.56;5070869;28;20200;-67
2022/03/15 03:24:24;;;;;;;8.50;4.60;;;;;;;11.15;49.09;98439.03;5046968;28;20212;-67
2022/03/15 03:26:49;;;;;;;4.77;3.90;;;;;;;11.09;49.15;98436.06;5076730;28;20187;-68
2022/03/15 03:29:16;;;;;;;9.63;4.10;;;;;;;11.10;49.35;98437.72;5076309;28;20503;-68
2022/03/15 03:31:43;;;;;;;6.40;4.10;;;;;;;11.10;49.30;98438.56;5075765;28;20198;-68
2022/03/15 03:34:11;;;;;;;9.30;4.67;;;;;;;11.12;49.46;98436.63;5070455;28;20805;-69
2022/03/15 03:36:37;;;;;;;7.73;4.23;;;;;;;11.16;49.32;98429.34;5070680;28;20982;-68
2022/03/15 03:39:07;;;;;;;5.80;4.10;;;;;;;11.05;49.36;98425.81;5070907;28;20494;-68
2022/03/15 03:41:33;;;;;;;11.10;4.90;;;;;;;11.10;49.55;98417.56;5071058;28;20798;-68
2022/03/15 03:43:58;;;;;;;8.43;4.20;;;;;;;11.10;49.38;98422.81;5070955;28;20436;-68
2022/03/15 03:46:24;;;;;;;7.73;4.50;;;;;;;11.07;49.45;98420.47;5070015;28;20635;-69
2022/03/15 03:48:52;;;;;;;8.63;4.43;;;;;;;11.09;49.72;98418.50;5052789;28;20167;-67
2022/03/15 03:51:18;;;;;;;7.70;4.80;;;;;;;11.13;49.49;98414.69;5070791;28;20182;-67
2022/03/15 03:53:44;;;;;;;9.40;4.33;;;;;;;11.08;49.60;98419.50;5063695;28;20823;-67
2022/03/15 03:56:09;;;;;;;5.57;4.60;;;;;;;11.05;49.53;98417.94;5067142;28;20240;-67
2022/03/15 03:58:35;;;;;;;8.10;4.40;;;;;;;10.95;49.79;98416.22;5070719;28;20567;-68
2022/03/15 04:01:01;;;;;;;10.60;4.50;;;;;;;11.04;49.99;98418.91;5070809;28;20178;-67
2022/03/15 04:03:28;;;;;;;6.40;3.87;;;;;;;11.09;49.88;98423.75;5071218;28;20248;-67
2022/03/15 04:05:54;;;;;;;7.93;4.27;;;;;;;11.11;50.04;98410.53;5073968;28;20424;-68
2022/03/15 04:08:19;;;;;;;5.70;4.00;;;;;;;11.08;49.92;98406.38;5073958;28;20891;-68
2022/03/15 04:10:46;;;;;;;9.40;4.37;;;;;;;11.10;49.53;98412.31;5066121;28;20197;-68
2022/03/15 04:13:14;;;;;;;8.30;4.00;;;;;;;11.07;49.65;98412.59;5064890;28;20248;-68
2022/03/15 04:15:39;;;;;;;9.17;4.80;;;;;;;11.07;49.77;98420.47;5060366;28;20462;-67
2022/03/15 04:18:05;;;;;;;5.47;4.43;;;;;;;10.99;49.17;98428.09;5074202;28;20421;-68
2022/03/15 04:20:32;;;;;;;6.90;4.37;;;;;;;10.78;49.87;98415.78;5074184;28;20210;-68
2022/03/15 04:22:58;;;;;;;9.33;3.70;;;;;;;10.58;51.32;98413.00;5073999;28;20225;-68
2022/03/15 04:25:25;;;;;;;5.27;4.03;;;;;;;10.70;51.04;98410.34;5055900;28;20428;-67
2022/03/15 04:27:52;;;;;;;7.10;4.30;;;;;;;10.81;50.76;98401.59;5068040;28;20449;-68
2022/03/15 04:30:18;;;;;;;7.87;4.40;;;;;;;10.90;50.25;98406.06;5072093;28;20499;-67
2022/03/15 04:32:44;;;;;;;6.77;4.30;;;;;;;10.95;50.13;98419.66;5073739;28;20445;-67
2022/03/15 04:35:09;;;;;;;10.00;4.90;;;;;;;11.02;50.29;98409.50;5073558;28;20509;-68
2022/03/15 04:37:35;;;;;;;8.50;4.63;;;;;;;10.98;49.71;98402.81;5048976;28;20175;-67
2022/03/15 04:40:00;;;;;;;7.70;4.40;;;;;;;10.82;50.32;98398.00;5061303;28;20202;-68
2022/03/15 04:42:26;;;;;;;12.43;4.93;;;;;;;10.84;50.29;98404.78;5073164;28;20189;-68
2022/03/15 04:44:52;;;;;;;7.13;3.77;;;;;;;10.81;50.46;98402.44;5061224;28;20175;-67
2022/03/15 04:47:17;;;;;;;10.00;4.00;;;;;;;10.77;50.43;98397.56;5039739;28;20197;-67
2022/03/15 04:49:43;;;;;;;7.87;4.13;;;;;;;10.74;51.06;98396.84;5066619;28;20171;-67
2022/03/15 04:52:08;;;;;;;7.40;3.60;;;;;;;10.78;51.02;98389.56;5050672;28;20236;-69
2022/03/15 04:54:34;;;;;;;6.37;3.90;;;;;;;10.83;50.75;98392.66;5053463;28;20198;-67
2022/03/15 04:56:59;;;;;;;8.80;3.73;;;;;;;10.88;50.52;98395.72;5053976;28;20440;-68
2022/03/15 04:59:24;;;;;;;9.07;4.37;;;;;;;10.92;50.58;98393.66;5053831;28;20586;-67
2022/03/15 05:01:50;;;;;;;8.30;3.63;;;;;;;10.95;50.38;98392.59;5049633;28;20175;-68
2022/03/15 05:04:15;;;;;;;6.27;4.30;;;;;;;10.99;50.30;98388.75;5053645;28;20573;-69
2022/03/15 05:06:41;;;;;;;6.40;4.20;;;;;;;10.96;50.37;98400.34;5052998;28;20178;-68
2022/03/15 05:09:06;;;;;;;7.10;4.40;;;;;;;11.00;50.29;98399.13;5047303;28;20172;-68
2022/03/15 05:11:32;;;;;;;5.57;3.87;;;;;;;10.99;49.95;98391.38;5043712;28;20247;-69
2022/03/15 05:13:58;;;;;;;4.80;3.70;;;;;;;10.94;50.06;98390.94;5051818;28;20326;-68
2022/03/15 05:16:23;;;;;;;6.27;4.17;;;;;;;10.91;50.23;98387.59;5058618;28;20429;-68
2022/03/15 05:18:54;;;;;;;20.50;4.23;;;;;;;10.89;50.32;98389.50;5072630;28;20212;-67
2022/03/15 05:21:22;;;;;;;9.60;3.57;;;;;;;10.87;50.33;98387.97;5059345;28;20184;-68
2022/03/15 05:23:48;;;;;;;6.27;4.30;;;;;;;10.84;50.02;98382.97;5058211;28;20436;-67
2022/03/15 05:26:15;;;;;;;8.53;3.83;;;;;;;10.82;50.55;98377.88;5072250;28;20474;-68
2022/03/15 05:28:41;;;;;;;8.13;4.37;;;;;;;10.82;50.51;98384.91;5076402;28;20170;-68
2022/03/15 05:31:07;;;;;;;7.37;3.90;;;;;;;10.81;50.40;98384.06;5056160;28;20968;-68
2022/03/15 05:33:32;;;;;;;6.67;4.10;;;;;;;10.80;50.44;98387.66;5056036;28;20251;-68
2022/03/15 05:35:58;;;;;;;9.43;4.60;;;;;;;10.84;50.82;98394.28;5070679;28;20743;-68
2022/03/15 05:38:24;;;;;;;6.40;4.03;;;;;;;10.87;50.77;98386.19;5055259;28;20562;-68
2022/03/15 05:40:49;;;;;;;6.63;3.80;;;;;;;10.91;50.56;98392.84;5066513;28;20174;-68
2022/03/15 05:43:15;;;;;;;6.77;3.70;;;;;;;10.96;50.57;98389.03;5071960;28;20249;-68
2022/03/15 05:45:41;;;;;;;5.90;3.97;;;;;;;10.99;50.33;98399.25;5067193;28;20183;-69
2022/03/15 05:48:06;;;;;;;6.63;4.30;;;;;;;10.89;50.47;98393.94;5033725;28;20233;-69
2022/03/15 05:50:32;;;;;;;8.20;4.20;;;;;;;10.86;50.46;98399.44;5071935;28;20548;-68
2022/03/15 05:53:02;;;;;;;11.23;4.20;;;;;;;10.89;50.56;98386.91;5070582;28;20212;-68
2022/03/15 05:55:27;;;;;;;10.93;4.13;;;;;;;10.84;50.45;98383.81;5057292;28;20569;-68
2022/03/15 05:57:53;;;;;;;8.77;4.40;;;;;;;10.74;50.99;98382.88;5065454;28;20412;-68
2022/03/15 06:00:20;;;;;;;7.73;4.67;;;;;;;10.81;51.09;98370.97;5071472;28;20206;-68
2022/03/15 06:02:45;;;;;;;7.03;4.80;;;;;;;10.86;51.26;98373.22;5071910;28;20202;-68
2022/03/15 06:05:12;;;;;;;9.30;4.63;;;;;;;10.85;50.80;98377.59;5047535;28;20785;-68
2022/03/15 06:07:49;;;;;;;13.20;5.40;;;;;;;10.82;50.46;98371.78;5071768;28;20679;-69
2022/03/15 06:10:17;;;;;;;7.00;4.20;;;;;;;10.83;51.24;98363.81;5058675;28;20794;-68
2022/03/15 06:12:43;;;;;;;11.97;4.80;;;;;;;10.87;50.87;98364.38;5071416;28;20779;-68
2022/03/15 06:15:09;;;;;;;13.33;4.83;;;;;;;10.88;50.94;98364.25;5061820;28;20562;-67
2022/03/15 06:17:52;;;;;;;8.90;5.00;;;;;;;10.89;51.19;98357.22;5052023;28;20432;-67
2022/03/15 06:20:18;;;;;;;8.67;4.30;;;;;;;10.95;50.99;98371.63;5071350;28;20440;-70
2022/03/15 06:22:44;;;;;;;17.20;4.80;;;;;;;10.97;50.85;98380.16;5071742;28;20459;-69
2022/03/15 06:25:10;;;;;;;14.33;4.63;;;;;;;11.02;50.81;98376.25;5052049;28;20445;-67
2022/03/15 06:27:36;;;;;;;9.00;5.20;;;;;;;11.05;50.80;98372.53;5070921;28;20815;-69
2022/03/15 06:30:04;;;;;;;9.80;5.33;;;;;;;11.10;50.80;98380.81;5071069;28;20653;-68
2022/03/15 06:32:31;;;;;;;14.13;4.90;;;;;;;11.14;50.79;98376.19;5060102;28;20805;-68
2022/03/15 06:34:58;;;;;;;13.10;4.70;;;;;;;11.15;50.75;98373.41;5066049;28;20494;-68
2022/03/15 06:37:24;;;;;;;10.23;4.63;;;;;;;11.16;50.47;98380.34;5071163;28;20432;-67
2022/03/15 06:39:49;;;;;;;10.33;4.90;;;;;;;11.20;50.70;98386.16;5071288;28;20975;-67
2022/03/15 06:42:15;;;;;;;6.27;4.37;;;;;;;11.20;50.74;98384.38;5059760;28;20755;-68
2022/03/15 06:44:42;;;;;;;9.70;5.03;;;;;;;11.12;50.36;98384.16;5069903;28;20174;-68
2022/03/15 06:47:08;;;;;;;13.20;6.03;;;;;;;11.06;51.34;98385.50;5047991;28;20719;-67
2022/03/15 06:49:33;;;;;;;15.60;6.17;;;;;;;11.18;51.35;98372.31;5050546;28;20406;-68
2022/03/15 06:51:59;;;;;;;10.90;5.37;;;;;;;11.18;49.94;98374.94;5043875;28;20179;-68
2022/03/15 06:54:26;;;;;;;9.73;5.07;;;;;;;11.25;49.81;98380.53;5051148;28;20229;-68
2022/03/15 06:56:53;;;;;;;15.37;5.47;;;;;;;11.28;49.75;98375.03;5050109;28;20706;-67
2022/03/15 06:59:19;;;;;;;12.27;5.23;;;;;;;11.25;50.05;98363.00;5068836;28;20484;-68
2022/03/15 07:01:45;;;;;;;15.93;5.60;;;;;;;11.21;50.67;98356.34;5069936;28;20424;-67
2022/03/15 07:04:11;;;;;;;14.60;6.70;;;;;;;11.32;51.21;98368.56;5062233;28;20437;-69
2022/03/15 07:06:36;;;;;;;15.70;6.63;;;;;;;11.43;50.52;98373.75;5057303;28;20181;-68
2022/03/15 07:09:02;;;;;;;9.43;5.53;;;;;;;11.51;49.62;98376.53;5060835;28;20182;-68
2022/03/15 07:11:27;;;;;;;9.23;5.17;;;;;;;11.49;49.26;98373.22;5049414;28;20278;-67
2022/03/15 07:13:53;;;;;;;16.23;5.10;;;;;;;11.57;49.39;98369.94;5050849;28;20453;-68
2022/03/15 07:16:19;;;;;;;11.70;6.37;;;;;;;11.58;49.32;98363.72;5050461;28;20270;-67
2022/03/15 07:18:45;;;;;;;15.03;4.40;;;;;;;11.55;48.38;98365.78;5050956;28;20195;-65
2022/03/15 07:21:11;;;;;;;10.23;4.60;;;;;;;11.66;47.86;98363.09;5049323;28;20785;-67
2022/03/15 07:23:36;;;;;;;10.40;4.30;;;;;;;11.72;48.07;98365.16;5043359;28;20227;-68
2022/03/15 07:26:02;;;;;;;5.80;4.10;;;;;;;11.78;47.50;98358.59;5050485;28;20178;-68
2022/03/15 07:28:27;;;;;;;13.90;4.77;;;;;;;11.71;47.37;98350.41;5050211;28;20194;-68
2022/03/15 07:30:53;;;;;;;8.20;4.07;;;;;;;11.76;47.45;98356.06;5050389;28;20182;-67
2022/03/15 07:33:18;;;;;;;13.00;5.13;;;;;;;11.79;47.42;98350.56;5050192;28;20268;-68
2022/03/15 07:35:44;;;;;;;7.43;4.07;;;;;;;11.81;47.14;98358.31;5050667;28;20258;-68
2022/03/15 07:38:09;;;;;;;11.47;4.20;;;;;;;11.93;46.75;98352.00;5051036;28;20214;-69
2022/03/15 07:40:35;;;;;;;7.53;4.27;;;;;;;11.94;46.94;98363.34;5054484;28;20209;-67
2022/03/15 07:43:00;;;;;;;8.57;4.13;;;;;;;11.93;47.33;98345.91;5054364;28;20609;-68
2022/03/15 07:45:26;;;;;;;5.70;4.57;;;;;;;11.93;47.68;98344.09;5054165;28;20186;-67
2022/03/15 07:47:51;;;;;;;8.40;4.70;;;;;;;12.01;47.10;98332.97;5054316;28;20183;-67
2022/03/15 07:50:17;;;;;;;7.60;4.60;;;;;;;12.07;46.76;98337.69;5054493;28;20228;-68
2022/03/15 07:52:43;;;;;;;6.40;3.80;;;;;;;12.09;46.67;98346.28;5054895;28;20609;-68
2022/03/15 07:55:09;;;;;;;8.40;3.90;;;;;;;12.12;46.77;98335.47;5053893;28;20451;-68
2022/03/15 07:57:34;;;;;;;8.73;3.97;;;;;;;12.11;46.88;98336.44;5053493;28;20187;-68
2022/03/15 08:00:00;;;;;;;14.10;4.90;;;;;;;12.10;46.63;98336.59;5049243;28;20257;-69
2022/03/15 08:02:25;;;;;;;18.23;4.87;;;;;;;12.09;46.91;98327.88;5051002;28;20196;-68
2022/03/15 08:04:53;;;;;;;9.63;4.37;;;;;;;12.18;46.84;98328.03;5063220;28;20177;-67
2022/03/15 08:07:21;;;;;;;12.03;4.50;;;;;;;12.16;46.82;98327.34;5064208;28;20186;-68
2022/03/15 08:09:47;;;;;;;12.87;4.80;;;;;;;12.23;46.94;98325.81;5054390;28;20468;-68
2022/03/15 08:12:13;;;;;;;10.03;4.60;;;;;;;12.28;46.97;98334.13;5054061;28;20422;-68
2022/03/15 08:14:38;;;;;;;11.57;4.43;;;;;;;12.24;46.31;98335.38;5054265;28;20178;-68
2022/03/15 08:17:04;;;;;;;8.90;4.10;;;;;;;12.26;46.68;98330.81;5071944;28;20633;-68
2022/03/15 08:19:30;;;;;;;5.90;4.00;;;;;;;12.29;46.83;98330.53;5062634;28;20235;-69
2022/03/15 08:21:57;;;;;;;12.43;4.57;;;;;;;12.40;46.82;98327.78;5053758;28;20436;-68
2022/03/15 08:24:23;;;;;;;9.37;4.53;;;;;;;12.48;46.23;98321.00;5036281;28;20203;-67
2022/03/15 08:26:49;;;;;;;7.90;4.33;;;;;;;12.58;46.25;98316.63;5054061;28;20467;-68
2022/03/15 08:29:14;;;;;;;9.00;4.63;;;;;;;12.68;45.61;98317.44;5054002;28;20688;-68
2022/03/15 08:31:40;;;;;;;7.33;4.30;;;;;;;12.78;45.88;98313.97;5051735;28;20183;-67
2022/03/15 08:34:05;;;;;;;9.47;4.20;;;;;;;12.85;45.72;98320.34;5054460;28;20249;-67
2022/03/15 08:36:31;;;;;;;5.87;3.67;;;;;;;12.90;45.02;98315.47;5054066;28;20520;-67
2022/03/15 08:38:56;;;;;;;10.97;4.30;;;;;;;13.00;44.73;98313.66;5054678;28;20191;-67
2022/03/15 08:41:22;;;;;;;7.47;3.93;;;;;;;13.09;44.52;98319.06;5052515;28;20837;-67
2022/03/15 08:43:47;;;;;;;6.20;4.13;;;;;;;13.17;44.63;98311.28;5054005;28;20616;-69
2022/03/15 08:46:13;;;;;;;13.03;4.57;;;;;;;13.25;45.02;98316.66;5054092;28;20198;-67
2022/03/15 08:48:38;;;;;;;9.70;4.40;;;;;;;13.28;44.33;98316.38;5061138;28;20186;-67
2022/03/15 08:51:03;;;;;;;10.70;2.80;;;;;;;13.31;43.85;98318.75;5055544;28;20205;-67
2022/03/15 08:53:32;;;;;;;5.03;3.07;;;;;;;13.28;43.30;98311.13;5052988;28;20198;-67
2022/03/15 08:55:58;;;;;;;8.70;3.47;;;;;;;13.35;43.12;98303.47;5064478;28;20197;-69
2022/03/15 08:58:24;;;;;;;3.40;2.80;;;;;;;13.35;43.62;98306.97;5070740;28;20881;-68
2022/03/15 09:00:50;;;;;;;4.00;3.20;;;;;;;13.40;43.46;98313.63;5053093;28;20461;-68
2022/03/15 09:03:15;;;;;;;4.70;3.17;;;;;;;13.43;43.70;98308.06;5051973;28;20206;-68
2022/03/15 09:05:41;;;;;;;7.20;3.10;;;;;;;13.30;44.33;98318.88;5043699;28;20425;-68
2022/03/15 09:08:06;;;;;;;4.00;3.13;;;;;;;13.46;44.65;98320.97;5071530;28;20696;-68
2022/03/15 09:10:32;;;;;;;4.47;2.73;;;;;;;13.42;46.12;98322.22;5051940;28;20255;-68
2022/03/15 09:12:57;;;;;;;8.40;3.13;;;;;;;13.40;47.14;98310.97;5052963;28;20634;-68
2022/03/15 09:15:23;;;;;;;6.03;3.00;;;;;;;13.47;47.31;98307.63;5050879;28;20210;-68
2022/03/15 09:17:49;;;;;;;5.57;2.83;;;;;;;13.55;48.06;98306.91;5067114;28;20660;-68
2022/03/15 09:20:15;;;;;;;6.77;3.03;;;;;;;13.61;48.42;98306.31;5061278;28;20211;-67
2022/03/15 09:22:40;;;;;;;8.13;3.37;;;;;;;13.62;49.20;98304.53;5050015;28;20199;-68
2022/03/15 09:25:06;;;;;;;6.00;3.10;;;;;;;13.66;49.52;98298.00;5052697;28;20416;-67
2022/03/15 09:27:32;;;;;;;6.83;3.30;;;;;;;13.67;50.34;98295.22;5052511;28;20175;-67
2022/03/15 09:29:58;;;;;;;5.27;2.77;;;;;;;13.67;50.99;98286.50;5061143;28;20406;-67
2022/03/15 09:32:24;;;;;;;4.20;2.90;;;;;;;13.69;51.20;98288.97;5051638;28;20593;-67
2022/03/15 09:34:50;;;;;;;3.97;2.90;;;;;;;13.74;51.28;98284.09;5066607;28;20512;-67
2022/03/15 09:37:15;;;;;;;4.50;2.30;;;;;;;13.69;51.67;98270.53;5063289;28;20670;-67
2022/03/15 09:39:41;;;;;;;3.67;2.97;;;;;;;13.69;52.04;98271.34;5051475;28;20270;-68
2022/03/15 09:42:08;;;;;;;3.47;3.03;;;;;;;13.68;53.24;98259.16;5052651;28;20244;-68
2022/03/15 09:44:35;;;;;;;3.47;2.70;;;;;;;13.69;53.34;98265.28;5044112;28;20191;-68
2022/03/15 09:47:03;;;;;;;5.27;3.40;;;;;;;13.66;53.51;98248.78;5052815;28;20422;-68
2022/03/15 09:49:29;;;;;;;5.77;2.97;;;;;;;13.73;53.61;98253.47;5054766;28;20419;-68
2022/03/15 09:51:55;;;;;;;3.10;2.73;;;;;;;13.72;53.26;98249.19;5053970;28;20426;-68
2022/03/15 09:54:22;;;;;;;7.40;2.97;;;;;;;13.63;53.44;98235.06;5051947;28;20199;-67
2022/03/15 09:56:48;;;;;;;3.50;2.70;;;;;;;13.54;53.49;98231.50;5049558;28;20555;-67
2022/03/15 09:59:19;;;;;;;5.17;3.00;;;;;;;13.53;53.58;98229.84;5052268;28;20534;-67
2022/03/15 10:01:50;;;;;;;4.90;3.17;;;;;;;13.54;53.68;98215.72;5060193;28;20782;-68
2022/03/15 10:04:19;;;;;;;3.53;3.10;;;;;;;13.55;54.12;98206.84;5059303;28;20516;-68
2022/03/15 10:06:45;;;;;;;8.00;3.83;;;;;;;13.51;54.37;98210.72;5051336;28;20421;-68
2022/03/15 10:09:11;;;;;;;5.93;3.90;;;;;;;13.50;54.46;98212.53;5051507;28;20944;-68
2022/03/15 10:11:37;;;;;;;5.30;4.33;;;;;;;13.44;55.23;98199.13;5050863;28;20261;-69
2022/03/15 10:14:04;;;;;;;15.13;5.70;;;;;;;13.49;55.19;98197.72;5050794;28;20195;-68
2022/03/15 10:16:34;;;;;;;7.40;4.57;;;;;;;13.57;55.13;98186.44;5050495;28;20421;-68
2022/03/15 10:19:00;;;;;;;8.40;4.20;;;;;;;13.63;54.71;98185.84;5052009;28;20883;-68
2022/03/15 10:21:53;;;;;;;5.33;3.67;;;;;;;13.71;55.05;98184.28;5050669;28;20509;-69
2022/03/15 10:24:23;;;;;;;9.13;3.47;;;;;;;13.73;54.82;98174.44;5050352;28;20453;-68
2022/03/15 10:26:51;;;;;;;3.43;3.00;;;;;;;13.72;54.90;98178.06;5055801;28;20444;-68
2022/03/15 10:29:18;;;;;;;4.43;3.27;;;;;;;13.65;54.57;98165.47;5062335;28;20924;-67
2022/03/15 10:31:45;;;;;;;4.53;3.10;;;;;;;13.69;54.78;98167.81;5052045;28;20951;-67
2022/03/15 10:34:12;;;;;;;5.43;3.50;;;;;;;13.67;54.72;98167.97;5060148;28;20493;-68
2022/03/15 10:36:43;;;;;;;5.77;3.50;;;;;;;13.60;54.55;98157.19;5066011;28;21106;-67
2022/03/15 10:39:11;;;;;;;5.57;3.80;;;;;;;13.71;54.67;98160.59;5051341;28;20479;-68
2022/03/15 10:41:43;;;;;;;4.30;3.47;;;;;;;13.73;54.90;98158.63;5055013;28;20431;-68
2022/03/15 10:44:28;;;;;;;7.43;3.50;;;;;;;13.74;54.81;98152.34;5051666;28;20449;-68
2022/03/15 10:47:07;;;;;;;4.53;3.43;;;;;;;13.72;54.90;98154.34;5070776;28;21001;-68
2022/03/15 10:49:50;;;;;;;4.87;3.83;;;;;;;13.67;55.46;98155.59;5051603;28;20495;-68
2022/03/15 10:52:30;;;;;;;13.13;4.30;;;;;;;13.69;55.53;98157.25;5056378;28;20455;-67
2022/03/15 10:54:55;;;;;;;5.50;3.87;;;;;;;13.76;55.42;98155.69;5050800;28;20410;-67
2022/03/15 10:57:21;;;;;;;8.80;6.00;;;;;;;13.73;55.63;98162.09;5058892;28;20424;-68
2022/03/15 10:59:46;;;;;;;4.67;3.90;;;;;;;13.67;55.76;98152.97;5050983;28;20245;-67
2022/03/15 11:02:12;;;;;;;6.03;3.73;;;;;;;13.69;56.13;98149.38;5059127;28;20185;-68
2022/03/15 11:04:47;;;;;;;9.03;4.60;;;;;;;13.69;55.80;98139.63;5050662;28;20667;-69
2022/03/15 11:07:16;;;;;;;7.23;4.37;;;;;;;13.77;56.03;98146.81;5050832;28;20674;-68
2022/03/15 11:09:42;;;;;;;5.23;4.00;;;;;;;13.80;56.18;98136.78;5050967;28;20791;-69
2022/03/15 11:12:09;;;;;;;4.57;3.63;;;;;;;13.80;55.83;98128.06;5050933;28;20927;-68
2022/03/15 11:14:46;;;;;;;7.20;4.13;;;;;;;13.72;56.06;98123.53;5045892;28;20441;-69
2022/03/15 11:17:15;;;;;;;5.93;4.27;;;;;;;13.70;55.83;98119.41;5048706;28;20882;-68
2022/03/15 11:19:47;;;;;;;7.60;4.90;;;;;;;13.65;56.63;98112.78;5050972;28;21022;-68
2022/03/15 11:22:14;;;;;;;8.23;4.30;;;;;;;13.59;56.86;98116.03;5051290;28;20437;-68
2022/03/15 11:24:45;;;;;;;7.13;4.90;;;;;;;13.59;57.65;98108.13;5054880;28;20959;-68
2022/03/15 11:27:14;;;;;;;5.00;4.43;;;;;;;13.61;58.17;98097.44;5046846;28;20428;-68
2022/03/15 11:29:40;;;;;;;7.30;4.70;;;;;;;13.64;57.75;98105.84;5050864;28;20425;-68